sensor_id;sensor_type;location;lat;lon;timestamp;P1;durP1;ratioP1;P2;durP2;ratioP2
54705;SDS011;40603;48.774;8.916;2023-02-01T00:01:17;4.75;;;1.90;;
54705;SDS011;40603;48.774;8.916;2023-02-01T00:03:42;3.17;;;1.88;;
54705;SDS011;40603;48.774;8.916;2023-02-01T00:06:08;4.45;;;2.15;;
54705;SDS011;40603;48.774;8.916;2023-02-01T00:08:33;4.65;;;2.20;;
54705;SDS011;40603;48.774;8.916;2023-02-01T00:11:00;2.50;;;1.90;;
54705;SDS011;40603;48.774;8.916;2023-02-01T00:13:33;2.60;;;1.88;;
54705;SDS011;40603;48.774;8.916;2023-02-01T00:16:03;2.33;;;1.70;;
54705;SDS011;40603;48.774;8.916;2023-02-01T00:18:32;2.78;;;2.10;;
54705;SDS011;40603;48.774;8.916;2023-02-01T00:20:58;4.05;;;1.85;;
54705;SDS011;40603;48.774;8.916;2023-02-01T00:23:23;2.20;;;1.60;;
54705;SDS011;40603;48.774;8.916;2023-02-01T00:25:49;2.85;;;1.90;;
54705;SDS011;40603;48.774;8.916;2023-02-01T00:28:14;4.50;;;2.10;;
54705;SDS011;40603;48.774;8.916;2023-02-01T00:30:39;2.88;;;1.83;;
54705;SDS011;40603;48.774;8.916;2023-02-01T00:33:04;2.88;;;1.90;;
54705;SDS011;40603;48.774;8.916;2023-02-01T00:35:30;2.35;;;1.85;;
54705;SDS011;40603;48.774;8.916;2023-02-01T00:37:55;2.90;;;2.00;;
54705;SDS011;40603;48.774;8.916;2023-02-01T00:40:23;3.75;;;2.42;;
54705;SDS011;40603;48.774;8.916;2023-02-01T00:42:48;3.72;;;2.42;;
54705;SDS011;40603;48.774;8.916;2023-02-01T00:45:14;5.07;;;2.50;;
54705;SDS011;40603;48.774;8.916;2023-02-01T00:47:39;3.05;;;2.38;;
54705;SDS011;40603;48.774;8.916;2023-02-01T00:50:04;3.20;;;2.05;;
54705;SDS011;40603;48.774;8.916;2023-02-01T00:52:30;4.90;;;2.70;;
54705;SDS011;40603;48.774;8.916;2023-02-01T00:54:55;4.72;;;2.47;;
54705;SDS011;40603;48.774;8.916;2023-02-01T00:57:20;3.63;;;2.60;;
54705;SDS011;40603;48.774;8.916;2023-02-01T00:59:45;5.03;;;2.42;;
54705;SDS011;40603;48.774;8.916;2023-02-01T01:02:11;3.35;;;2.33;;
54705;SDS011;40603;48.774;8.916;2023-02-01T01:04:39;3.17;;;2.55;;
54705;SDS011;40603;48.774;8.916;2023-02-01T01:07:04;4.20;;;2.35;;
54705;SDS011;40603;48.774;8.916;2023-02-01T01:09:29;4.22;;;2.72;;
54705;SDS011;40603;48.774;8.916;2023-02-01T01:11:55;4.15;;;2.15;;
54705;SDS011;40603;48.774;8.916;2023-02-01T01:14:20;3.00;;;2.28;;
54705;SDS011;40603;48.774;8.916;2023-02-01T01:16:45;3.30;;;2.28;;
54705;SDS011;40603;48.774;8.916;2023-02-01T01:19:11;3.38;;;2.38;;
54705;SDS011;40603;48.774;8.916;2023-02-01T01:21:36;4.28;;;2.50;;
54705;SDS011;40603;48.774;8.916;2023-02-01T01:24:01;3.35;;;2.28;;
54705;SDS011;40603;48.774;8.916;2023-02-01T01:26:27;4.60;;;2.28;;
54705;SDS011;40603;48.774;8.916;2023-02-01T01:28:57;3.60;;;2.42;;
54705;SDS011;40603;48.774;8.916;2023-02-01T01:31:23;2.90;;;2.10;;
54705;SDS011;40603;48.774;8.916;2023-02-01T01:33:52;2.90;;;2.20;;
54705;SDS011;40603;48.774;8.916;2023-02-01T01:36:19;3.40;;;2.13;;
54705;SDS011;40603;48.774;8.916;2023-02-01T01:38:44;2.00;;;1.42;;
54705;SDS011;40603;48.774;8.916;2023-02-01T01:41:12;2.95;;;1.80;;
54705;SDS011;40603;48.774;8.916;2023-02-01T01:43:56;2.17;;;1.70;;
54705;SDS011;40603;48.774;8.916;2023-02-01T01:46:24;2.08;;;1.50;;
54705;SDS011;40603;48.774;8.916;2023-02-01T01:51:21;3.35;;;1.30;;
54705;SDS011;40603;48.774;8.916;2023-02-01T01:53:51;1.52;;;1.25;;
54705;SDS011;40603;48.774;8.916;2023-02-01T01:56:21;2.80;;;1.75;;
54705;SDS011;40603;48.774;8.916;2023-02-01T01:58:47;3.17;;;1.67;;
54705;SDS011;40603;48.774;8.916;2023-02-01T02:01:12;1.45;;;1.35;;
54705;SDS011;40603;48.774;8.916;2023-02-01T02:03:39;1.88;;;1.70;;
54705;SDS011;40603;48.774;8.916;2023-02-01T02:06:10;3.25;;;1.38;;
54705;SDS011;40603;48.774;8.916;2023-02-01T02:08:39;2.53;;;1.67;;
54705;SDS011;40603;48.774;8.916;2023-02-01T02:11:04;2.78;;;1.40;;
54705;SDS011;40603;48.774;8.916;2023-02-01T02:13:31;2.72;;;1.83;;
54705;SDS011;40603;48.774;8.916;2023-02-01T02:16:09;2.10;;;1.73;;
54705;SDS011;40603;48.774;8.916;2023-02-01T02:22:12;4.55;;;1.63;;
54705;SDS011;40603;48.774;8.916;2023-02-01T02:35:59;2.58;;;1.63;;
54705;SDS011;40603;48.774;8.916;2023-02-01T02:38:32;3.50;;;1.70;;
54705;SDS011;40603;48.774;8.916;2023-02-01T02:41:13;2.42;;;1.90;;
54705;SDS011;40603;48.774;8.916;2023-02-01T02:44:03;2.40;;;1.55;;
54705;SDS011;40603;48.774;8.916;2023-02-01T02:46:52;3.33;;;1.60;;
54705;SDS011;40603;48.774;8.916;2023-02-01T02:49:49;2.58;;;2.10;;
54705;SDS011;40603;48.774;8.916;2023-02-01T02:52:45;2.45;;;1.80;;
54705;SDS011;40603;48.774;8.916;2023-02-01T02:55:34;4.05;;;1.67;;
54705;SDS011;40603;48.774;8.916;2023-02-01T02:58:01;3.53;;;1.63;;
54705;SDS011;40603;48.774;8.916;2023-02-01T03:00:46;1.92;;;1.77;;
54705;SDS011;40603;48.774;8.916;2023-02-01T03:03:31;2.47;;;1.77;;
54705;SDS011;40603;48.774;8.916;2023-02-01T03:06:15;3.17;;;1.75;;
54705;SDS011;40603;48.774;8.916;2023-02-01T03:08:42;2.92;;;1.90;;
54705;SDS011;40603;48.774;8.916;2023-02-01T03:11:10;2.47;;;1.95;;
54705;SDS011;40603;48.774;8.916;2023-02-01T03:13:49;2.85;;;2.15;;
54705;SDS011;40603;48.774;8.916;2023-02-01T03:21:53;2.88;;;1.95;;
54705;SDS011;40603;48.774;8.916;2023-02-01T03:24:26;4.35;;;2.15;;
54705;SDS011;40603;48.774;8.916;2023-02-01T03:27:00;2.65;;;2.10;;
54705;SDS011;40603;48.774;8.916;2023-02-01T03:29:44;3.70;;;2.25;;
54705;SDS011;40603;48.774;8.916;2023-02-01T03:32:14;4.82;;;2.63;;
54705;SDS011;40603;48.774;8.916;2023-02-01T03:34:39;2.72;;;2.30;;
54705;SDS011;40603;48.774;8.916;2023-02-01T03:37:06;3.00;;;1.70;;
54705;SDS011;40603;48.774;8.916;2023-02-01T03:39:36;1.50;;;1.40;;
54705;SDS011;40603;48.774;8.916;2023-02-01T03:42:06;1.50;;;1.30;;
54705;SDS011;40603;48.774;8.916;2023-02-01T03:47:07;1.80;;;1.05;;
54705;SDS011;40603;48.774;8.916;2023-02-01T03:49:43;2.55;;;1.13;;
54705;SDS011;40603;48.774;8.916;2023-02-01T03:52:13;1.20;;;0.95;;
54705;SDS011;40603;48.774;8.916;2023-02-01T03:54:42;1.45;;;0.98;;
54705;SDS011;40603;48.774;8.916;2023-02-01T03:57:09;1.25;;;0.70;;
54705;SDS011;40603;48.774;8.916;2023-02-01T03:59:44;1.42;;;0.80;;
54705;SDS011;40603;48.774;8.916;2023-02-01T04:02:10;0.82;;;0.82;;
54705;SDS011;40603;48.774;8.916;2023-02-01T04:04:37;0.73;;;0.70;;
54705;SDS011;40603;48.774;8.916;2023-02-01T04:07:02;1.00;;;0.90;;
54705;SDS011;40603;48.774;8.916;2023-02-01T04:09:28;2.17;;;1.17;;
54705;SDS011;40603;48.774;8.916;2023-02-01T04:11:53;1.00;;;0.60;;
54705;SDS011;40603;48.774;8.916;2023-02-01T04:14:18;1.38;;;0.90;;
54705;SDS011;40603;48.774;8.916;2023-02-01T04:16:44;2.75;;;1.00;;
54705;SDS011;40603;48.774;8.916;2023-02-01T04:19:10;1.58;;;0.82;;
54705;SDS011;40603;48.774;8.916;2023-02-01T04:21:35;2.33;;;1.15;;
54705;SDS011;40603;48.774;8.916;2023-02-01T04:24:00;3.28;;;1.10;;
54705;SDS011;40603;48.774;8.916;2023-02-01T04:26:26;1.70;;;1.20;;
54705;SDS011;40603;48.774;8.916;2023-02-01T04:28:51;1.65;;;0.80;;
54705;SDS011;40603;48.774;8.916;2023-02-01T04:31:17;2.05;;;1.27;;
54705;SDS011;40603;48.774;8.916;2023-02-01T04:33:50;2.45;;;1.10;;
54705;SDS011;40603;48.774;8.916;2023-02-01T04:36:16;1.70;;;1.00;;
54705;SDS011;40603;48.774;8.916;2023-02-01T04:38:44;2.65;;;1.20;;
54705;SDS011;40603;48.774;8.916;2023-02-01T04:41:09;1.00;;;0.90;;
54705;SDS011;40603;48.774;8.916;2023-02-01T04:43:35;1.35;;;0.85;;
54705;SDS011;40603;48.774;8.916;2023-02-01T04:46:00;1.42;;;0.90;;
54705;SDS011;40603;48.774;8.916;2023-02-01T04:48:25;1.27;;;0.80;;
54705;SDS011;40603;48.774;8.916;2023-02-01T04:50:51;1.08;;;0.90;;
54705;SDS011;40603;48.774;8.916;2023-02-01T04:53:16;2.63;;;0.95;;
54705;SDS011;40603;48.774;8.916;2023-02-01T04:55:42;0.95;;;0.90;;
54705;SDS011;40603;48.774;8.916;2023-02-01T04:58:08;0.82;;;0.80;;
54705;SDS011;40603;48.774;8.916;2023-02-01T05:00:33;0.77;;;0.75;;
54705;SDS011;40603;48.774;8.916;2023-02-01T05:02:59;1.98;;;1.05;;
54705;SDS011;40603;48.774;8.916;2023-02-01T05:05:24;1.08;;;1.00;;
54705;SDS011;40603;48.774;8.916;2023-02-01T05:07:50;3.28;;;1.15;;
54705;SDS011;40603;48.774;8.916;2023-02-01T05:10:15;1.98;;;1.05;;
54705;SDS011;40603;48.774;8.916;2023-02-01T05:12:42;1.00;;;0.90;;
54705;SDS011;40603;48.774;8.916;2023-02-01T05:15:27;2.03;;;1.42;;
54705;SDS011;40603;48.774;8.916;2023-02-01T05:17:52;1.38;;;1.25;;
54705;SDS011;40603;48.774;8.916;2023-02-01T05:20:17;2.00;;;1.08;;
54705;SDS011;40603;48.774;8.916;2023-02-01T05:22:43;1.23;;;1.13;;
54705;SDS011;40603;48.774;8.916;2023-02-01T05:25:08;2.13;;;1.13;;
54705;SDS011;40603;48.774;8.916;2023-02-01T05:27:33;2.10;;;0.98;;
54705;SDS011;40603;48.774;8.916;2023-02-01T05:29:59;1.65;;;1.13;;
54705;SDS011;40603;48.774;8.916;2023-02-01T05:32:24;3.88;;;1.10;;
54705;SDS011;40603;48.774;8.916;2023-02-01T05:34:49;1.90;;;0.98;;
54705;SDS011;40603;48.774;8.916;2023-02-01T05:37:15;1.85;;;1.20;;
54705;SDS011;40603;48.774;8.916;2023-02-01T05:39:40;2.50;;;1.13;;
54705;SDS011;40603;48.774;8.916;2023-02-01T05:42:05;4.13;;;1.30;;
54705;SDS011;40603;48.774;8.916;2023-02-01T05:44:30;1.75;;;1.17;;
54705;SDS011;40603;48.774;8.916;2023-02-01T05:46:56;2.47;;;1.30;;
54705;SDS011;40603;48.774;8.916;2023-02-01T05:49:21;1.08;;;1.00;;
54705;SDS011;40603;48.774;8.916;2023-02-01T05:51:46;3.00;;;1.15;;
54705;SDS011;40603;48.774;8.916;2023-02-01T05:54:12;2.15;;;1.00;;
54705;SDS011;40603;48.774;8.916;2023-02-01T05:56:37;2.38;;;1.23;;
54705;SDS011;40603;48.774;8.916;2023-02-01T05:59:02;4.15;;;1.30;;
54705;SDS011;40603;48.774;8.916;2023-02-01T06:01:28;1.50;;;1.15;;
54705;SDS011;40603;48.774;8.916;2023-02-01T06:03:53;3.33;;;1.45;;
54705;SDS011;40603;48.774;8.916;2023-02-01T06:06:18;2.33;;;1.48;;
54705;SDS011;40603;48.774;8.916;2023-02-01T06:08:44;4.03;;;1.50;;
54705;SDS011;40603;48.774;8.916;2023-02-01T06:11:09;3.80;;;2.00;;
54705;SDS011;40603;48.774;8.916;2023-02-01T06:13:35;2.60;;;1.77;;
54705;SDS011;40603;48.774;8.916;2023-02-01T06:16:01;2.33;;;1.52;;
54705;SDS011;40603;48.774;8.916;2023-02-01T06:18:27;5.05;;;1.63;;
54705;SDS011;40603;48.774;8.916;2023-02-01T06:20:53;4.65;;;1.70;;
54705;SDS011;40603;48.774;8.916;2023-02-01T06:23:19;5.03;;;2.00;;
54705;SDS011;40603;48.774;8.916;2023-02-01T06:25:49;4.28;;;1.90;;
54705;SDS011;40603;48.774;8.916;2023-02-01T06:28:17;5.47;;;2.28;;
54705;SDS011;40603;48.774;8.916;2023-02-01T06:30:42;8.50;;;2.53;;
54705;SDS011;40603;48.774;8.916;2023-02-01T06:33:10;4.50;;;2.28;;
54705;SDS011;40603;48.774;8.916;2023-02-01T06:35:40;5.40;;;2.00;;
54705;SDS011;40603;48.774;8.916;2023-02-01T06:38:07;3.25;;;2.03;;
54705;SDS011;40603;48.774;8.916;2023-02-01T06:40:32;4.53;;;2.22;;
54705;SDS011;40603;48.774;8.916;2023-02-01T06:42:58;4.97;;;2.50;;
54705;SDS011;40603;48.774;8.916;2023-02-01T06:45:23;6.45;;;2.67;;
54705;SDS011;40603;48.774;8.916;2023-02-01T06:47:48;10.15;;;2.55;;
54705;SDS011;40603;48.774;8.916;2023-02-01T06:50:14;6.75;;;2.45;;
54705;SDS011;40603;48.774;8.916;2023-02-01T06:52:39;4.05;;;2.20;;
54705;SDS011;40603;48.774;8.916;2023-02-01T06:55:05;4.40;;;2.53;;
54705;SDS011;40603;48.774;8.916;2023-02-01T06:57:30;4.32;;;2.50;;
54705;SDS011;40603;48.774;8.916;2023-02-01T06:59:58;4.90;;;2.70;;
54705;SDS011;40603;48.774;8.916;2023-02-01T07:02:23;4.53;;;2.47;;
54705;SDS011;40603;48.774;8.916;2023-02-01T07:04:48;6.20;;;2.30;;
54705;SDS011;40603;48.774;8.916;2023-02-01T07:07:14;6.25;;;2.38;;
54705;SDS011;40603;48.774;8.916;2023-02-01T07:09:40;13.07;;;2.42;;
54705;SDS011;40603;48.774;8.916;2023-02-01T07:12:05;7.45;;;2.15;;
54705;SDS011;40603;48.774;8.916;2023-02-01T07:14:30;6.70;;;2.10;;
54705;SDS011;40603;48.774;8.916;2023-02-01T07:16:56;6.63;;;2.13;;
54705;SDS011;40603;48.774;8.916;2023-02-01T07:19:21;6.50;;;2.30;;
54705;SDS011;40603;48.774;8.916;2023-02-01T07:21:46;6.50;;;2.20;;
54705;SDS011;40603;48.774;8.916;2023-02-01T07:24:11;5.03;;;1.90;;
54705;SDS011;40603;48.774;8.916;2023-02-01T07:26:37;5.20;;;1.85;;
54705;SDS011;40603;48.774;8.916;2023-02-01T07:29:02;6.10;;;1.98;;
54705;SDS011;40603;48.774;8.916;2023-02-01T07:31:27;6.40;;;2.13;;
54705;SDS011;40603;48.774;8.916;2023-02-01T07:33:53;4.90;;;2.28;;
54705;SDS011;40603;48.774;8.916;2023-02-01T07:36:21;7.93;;;2.65;;
54705;SDS011;40603;48.774;8.916;2023-02-01T07:38:46;5.95;;;2.55;;
54705;SDS011;40603;48.774;8.916;2023-02-01T07:41:12;4.90;;;2.00;;
54705;SDS011;40603;48.774;8.916;2023-02-01T07:43:37;6.20;;;2.40;;
54705;SDS011;40603;48.774;8.916;2023-02-01T07:46:03;7.68;;;2.20;;
54705;SDS011;40603;48.774;8.916;2023-02-01T07:48:29;7.10;;;2.78;;
54705;SDS011;40603;48.774;8.916;2023-02-01T07:51:05;8.75;;;2.67;;
54705;SDS011;40603;48.774;8.916;2023-02-01T07:53:33;8.48;;;2.60;;
54705;SDS011;40603;48.774;8.916;2023-02-01T07:55:59;7.85;;;2.80;;
54705;SDS011;40603;48.774;8.916;2023-02-01T07:58:25;7.07;;;2.70;;
54705;SDS011;40603;48.774;8.916;2023-02-01T08:00:51;12.35;;;2.85;;
54705;SDS011;40603;48.774;8.916;2023-02-01T08:03:35;12.02;;;2.42;;
54705;SDS011;40603;48.774;8.916;2023-02-01T08:06:01;11.68;;;2.38;;
54705;SDS011;40603;48.774;8.916;2023-02-01T08:08:26;12.95;;;2.40;;
54705;SDS011;40603;48.774;8.916;2023-02-01T08:10:56;13.63;;;3.47;;
54705;SDS011;40603;48.774;8.916;2023-02-01T08:13:22;9.50;;;2.05;;
54705;SDS011;40603;48.774;8.916;2023-02-01T08:15:47;7.60;;;2.30;;
54705;SDS011;40603;48.774;8.916;2023-02-01T08:18:13;8.45;;;2.42;;
54705;SDS011;40603;48.774;8.916;2023-02-01T08:20:41;4.50;;;2.47;;
54705;SDS011;40603;48.774;8.916;2023-02-01T08:23:08;7.05;;;2.28;;
54705;SDS011;40603;48.774;8.916;2023-02-01T08:25:34;12.95;;;3.22;;
54705;SDS011;40603;48.774;8.916;2023-02-01T08:27:59;14.95;;;2.40;;
54705;SDS011;40603;48.774;8.916;2023-02-01T08:30:25;6.00;;;2.10;;
54705;SDS011;40603;48.774;8.916;2023-02-01T08:32:52;9.25;;;2.45;;
54705;SDS011;40603;48.774;8.916;2023-02-01T08:35:17;10.02;;;2.05;;
54705;SDS011;40603;48.774;8.916;2023-02-01T08:37:43;14.55;;;2.72;;
54705;SDS011;40603;48.774;8.916;2023-02-01T08:40:08;12.25;;;2.42;;
54705;SDS011;40603;48.774;8.916;2023-02-01T08:42:34;10.82;;;2.25;;
54705;SDS011;40603;48.774;8.916;2023-02-01T08:45:19;15.25;;;2.83;;
54705;SDS011;40603;48.774;8.916;2023-02-01T08:47:53;10.27;;;2.28;;
54705;SDS011;40603;48.774;8.916;2023-02-01T08:50:19;13.15;;;2.03;;
54705;SDS011;40603;48.774;8.916;2023-02-01T08:52:45;8.70;;;2.17;;
54705;SDS011;40603;48.774;8.916;2023-02-01T08:55:10;8.40;;;2.30;;
54705;SDS011;40603;48.774;8.916;2023-02-01T08:57:36;9.32;;;2.50;;
54705;SDS011;40603;48.774;8.916;2023-02-01T09:00:02;11.88;;;2.67;;
54705;SDS011;40603;48.774;8.916;2023-02-01T09:02:28;10.82;;;1.77;;
54705;SDS011;40603;48.774;8.916;2023-02-01T09:04:53;10.85;;;2.85;;
54705;SDS011;40603;48.774;8.916;2023-02-01T09:07:20;9.18;;;2.30;;
54705;SDS011;40603;48.774;8.916;2023-02-01T09:09:45;12.70;;;2.80;;
54705;SDS011;40603;48.774;8.916;2023-02-01T09:12:11;10.57;;;2.83;;
54705;SDS011;40603;48.774;8.916;2023-02-01T09:14:36;14.60;;;2.90;;
54705;SDS011;40603;48.774;8.916;2023-02-01T09:17:02;10.27;;;2.53;;
54705;SDS011;40603;48.774;8.916;2023-02-01T09:19:27;11.23;;;2.67;;
54705;SDS011;40603;48.774;8.916;2023-02-01T09:21:53;9.23;;;2.45;;
54705;SDS011;40603;48.774;8.916;2023-02-01T09:24:18;15.48;;;2.38;;
54705;SDS011;40603;48.774;8.916;2023-02-01T09:26:43;11.65;;;2.33;;
54705;SDS011;40603;48.774;8.916;2023-02-01T09:29:09;15.15;;;2.50;;
54705;SDS011;40603;48.774;8.916;2023-02-01T09:31:37;6.45;;;2.45;;
54705;SDS011;40603;48.774;8.916;2023-02-01T09:34:03;18.42;;;3.05;;
54705;SDS011;40603;48.774;8.916;2023-02-01T09:36:28;16.45;;;2.63;;
54705;SDS011;40603;48.774;8.916;2023-02-01T09:38:54;16.33;;;2.15;;
54705;SDS011;40603;48.774;8.916;2023-02-01T09:46:57;9.82;;;1.92;;
54705;SDS011;40603;48.774;8.916;2023-02-01T09:49:26;13.85;;;2.30;;
54705;SDS011;40603;48.774;8.916;2023-02-01T09:51:53;11.82;;;2.60;;
54705;SDS011;40603;48.774;8.916;2023-02-01T09:54:24;13.60;;;1.95;;
54705;SDS011;40603;48.774;8.916;2023-02-01T09:59:40;14.07;;;2.40;;
54705;SDS011;40603;48.774;8.916;2023-02-01T10:02:20;7.18;;;1.92;;
54705;SDS011;40603;48.774;8.916;2023-02-01T10:04:48;7.90;;;2.30;;
54705;SDS011;40603;48.774;8.916;2023-02-01T10:07:18;5.43;;;1.98;;
54705;SDS011;40603;48.774;8.916;2023-02-01T10:15:30;11.10;;;2.40;;
54705;SDS011;40603;48.774;8.916;2023-02-01T10:20:30;13.25;;;2.55;;
54705;SDS011;40603;48.774;8.916;2023-02-01T10:23:21;15.70;;;2.95;;
54705;SDS011;40603;48.774;8.916;2023-02-01T10:26:12;7.57;;;2.22;;
54705;SDS011;40603;48.774;8.916;2023-02-01T10:28:43;8.68;;;2.30;;
54705;SDS011;40603;48.774;8.916;2023-02-01T10:31:09;11.80;;;2.05;;
54705;SDS011;40603;48.774;8.916;2023-02-01T10:33:42;11.48;;;1.95;;
54705;SDS011;40603;48.774;8.916;2023-02-01T10:36:18;14.52;;;2.38;;
54705;SDS011;40603;48.774;8.916;2023-02-01T10:38:47;10.95;;;2.00;;
54705;SDS011;40603;48.774;8.916;2023-02-01T10:41:14;14.57;;;3.20;;
54705;SDS011;40603;48.774;8.916;2023-02-01T10:43:41;15.13;;;2.97;;
54705;SDS011;40603;48.774;8.916;2023-02-01T10:46:06;17.10;;;3.45;;
54705;SDS011;40603;48.774;8.916;2023-02-01T10:48:32;17.58;;;4.35;;
54705;SDS011;40603;48.774;8.916;2023-02-01T10:51:02;8.18;;;2.00;;
54705;SDS011;40603;48.774;8.916;2023-02-01T10:53:46;4.68;;;2.03;;
54705;SDS011;40603;48.774;8.916;2023-02-01T10:56:18;11.65;;;2.10;;
54705;SDS011;40603;48.774;8.916;2023-02-01T10:58:47;11.27;;;1.85;;
54705;SDS011;40603;48.774;8.916;2023-02-01T11:01:17;11.00;;;2.30;;
54705;SDS011;40603;48.774;8.916;2023-02-01T11:03:52;12.90;;;2.47;;
54705;SDS011;40603;48.774;8.916;2023-02-01T11:06:19;9.95;;;1.80;;
54705;SDS011;40603;48.774;8.916;2023-02-01T11:08:51;12.98;;;2.03;;
54705;SDS011;40603;48.774;8.916;2023-02-01T11:11:18;15.07;;;2.35;;
54705;SDS011;40603;48.774;8.916;2023-02-01T11:13:43;15.27;;;2.70;;
54705;SDS011;40603;48.774;8.916;2023-02-01T11:16:13;13.60;;;2.83;;
54705;SDS011;40603;48.774;8.916;2023-02-01T11:18:39;12.93;;;2.45;;
54705;SDS011;40603;48.774;8.916;2023-02-01T11:21:05;9.80;;;2.08;;
54705;SDS011;40603;48.774;8.916;2023-02-01T11:23:31;12.38;;;2.00;;
54705;SDS011;40603;48.774;8.916;2023-02-01T11:26:07;9.38;;;2.20;;
54705;SDS011;40603;48.774;8.916;2023-02-01T11:28:37;16.17;;;1.92;;
54705;SDS011;40603;48.774;8.916;2023-02-01T11:31:04;11.70;;;2.08;;
54705;SDS011;40603;48.774;8.916;2023-02-01T11:33:34;11.45;;;2.33;;
54705;SDS011;40603;48.774;8.916;2023-02-01T11:36:09;11.57;;;1.98;;
54705;SDS011;40603;48.774;8.916;2023-02-01T11:38:38;14.90;;;2.22;;
54705;SDS011;40603;48.774;8.916;2023-02-01T11:41:23;9.95;;;1.85;;
54705;SDS011;40603;48.774;8.916;2023-02-01T11:43:56;11.73;;;1.92;;
54705;SDS011;40603;48.774;8.916;2023-02-01T11:46:27;10.93;;;2.45;;
54705;SDS011;40603;48.774;8.916;2023-02-01T11:48:55;9.77;;;1.60;;
54705;SDS011;40603;48.774;8.916;2023-02-01T11:51:46;9.95;;;2.58;;
54705;SDS011;40603;48.774;8.916;2023-02-01T11:57:04;10.50;;;1.90;;
54705;SDS011;40603;48.774;8.916;2023-02-01T11:59:49;7.82;;;1.83;;
54705;SDS011;40603;48.774;8.916;2023-02-01T12:05:05;6.10;;;2.00;;
54705;SDS011;40603;48.774;8.916;2023-02-01T12:08:09;10.73;;;1.95;;
54705;SDS011;40603;48.774;8.916;2023-02-01T12:13:34;7.50;;;2.03;;
54705;SDS011;40603;48.774;8.916;2023-02-01T12:18:49;15.73;;;2.40;;
54705;SDS011;40603;48.774;8.916;2023-02-01T12:27:07;7.70;;;2.05;;
54705;SDS011;40603;48.774;8.916;2023-02-01T12:38:00;12.73;;;2.00;;
54705;SDS011;40603;48.774;8.916;2023-02-01T12:40:38;10.15;;;2.00;;
54705;SDS011;40603;48.774;8.916;2023-02-01T12:50:54;13.60;;;2.08;;
54705;SDS011;40603;48.774;8.916;2023-02-01T12:55:56;12.00;;;2.60;;
54705;SDS011;40603;48.774;8.916;2023-02-01T13:01:17;10.55;;;2.40;;
54705;SDS011;40603;48.774;8.916;2023-02-01T13:03:51;10.65;;;1.90;;
54705;SDS011;40603;48.774;8.916;2023-02-01T13:06:23;9.05;;;2.15;;
54705;SDS011;40603;48.774;8.916;2023-02-01T13:11:34;11.90;;;2.20;;
54705;SDS011;40603;48.774;8.916;2023-02-01T13:16:43;14.98;;;2.42;;
54705;SDS011;40603;48.774;8.916;2023-02-01T13:21:51;11.65;;;2.38;;
54705;SDS011;40603;48.774;8.916;2023-02-01T13:24:24;8.70;;;1.95;;
54705;SDS011;40603;48.774;8.916;2023-02-01T13:26:58;8.38;;;2.00;;
54705;SDS011;40603;48.774;8.916;2023-02-01T13:29:23;15.75;;;2.45;;
54705;SDS011;40603;48.774;8.916;2023-02-01T13:34:54;16.23;;;2.50;;
54705;SDS011;40603;48.774;8.916;2023-02-01T13:38:03;8.43;;;2.17;;
54705;SDS011;40603;48.774;8.916;2023-02-01T13:40:22;9.40;;;1.98;;
54705;SDS011;40603;48.774;8.916;2023-02-01T13:42:57;11.95;;;2.72;;
54705;SDS011;40603;48.774;8.916;2023-02-01T13:45:25;15.63;;;3.10;;
54705;SDS011;40603;48.774;8.916;2023-02-01T13:47:54;12.50;;;2.30;;
54705;SDS011;40603;48.774;8.916;2023-02-01T13:50:24;8.73;;;2.08;;
54705;SDS011;40603;48.774;8.916;2023-02-01T13:52:58;22.98;;;9.50;;
54705;SDS011;40603;48.774;8.916;2023-02-01T13:55:36;8.27;;;2.40;;
54705;SDS011;40603;48.774;8.916;2023-02-01T14:11:53;10.68;;;2.20;;
54705;SDS011;40603;48.774;8.916;2023-02-01T14:19:23;8.30;;;2.92;;
54705;SDS011;40603;48.774;8.916;2023-02-01T14:21:59;9.88;;;2.60;;
54705;SDS011;40603;48.774;8.916;2023-02-01T14:24:33;8.77;;;2.55;;
54705;SDS011;40603;48.774;8.916;2023-02-01T14:27:20;7.90;;;2.38;;
54705;SDS011;40603;48.774;8.916;2023-02-01T14:29:53;6.07;;;2.15;;
54705;SDS011;40603;48.774;8.916;2023-02-01T14:32:26;8.38;;;2.20;;
54705;SDS011;40603;48.774;8.916;2023-02-01T14:34:57;16.85;;;3.97;;
54705;SDS011;40603;48.774;8.916;2023-02-01T14:37:29;8.35;;;1.83;;
54705;SDS011;40603;48.774;8.916;2023-02-01T14:40:00;12.35;;;2.50;;
54705;SDS011;40603;48.774;8.916;2023-02-01T14:42:43;7.28;;;1.95;;
54705;SDS011;40603;48.774;8.916;2023-02-01T14:50:31;11.85;;;2.92;;
54705;SDS011;40603;48.774;8.916;2023-02-01T14:58:01;12.68;;;4.28;;
54705;SDS011;40603;48.774;8.916;2023-02-01T15:00:30;16.58;;;4.82;;
54705;SDS011;40603;48.774;8.916;2023-02-01T15:03:01;11.63;;;2.67;;
54705;SDS011;40603;48.774;8.916;2023-02-01T15:05:56;11.20;;;2.25;;
54705;SDS011;40603;48.774;8.916;2023-02-01T15:08:25;13.23;;;2.40;;
54705;SDS011;40603;48.774;8.916;2023-02-01T15:10:52;13.05;;;2.47;;
54705;SDS011;40603;48.774;8.916;2023-02-01T15:13:27;13.18;;;3.47;;
54705;SDS011;40603;48.774;8.916;2023-02-01T15:15:59;12.40;;;2.38;;
54705;SDS011;40603;48.774;8.916;2023-02-01T15:18:31;8.38;;;2.30;;
54705;SDS011;40603;48.774;8.916;2023-02-01T15:20:57;10.77;;;2.30;;
54705;SDS011;40603;48.774;8.916;2023-02-01T15:23:24;11.25;;;2.22;;
54705;SDS011;40603;48.774;8.916;2023-02-01T15:25:50;7.57;;;2.30;;
54705;SDS011;40603;48.774;8.916;2023-02-01T15:28:15;12.55;;;2.28;;
54705;SDS011;40603;48.774;8.916;2023-02-01T15:30:51;10.73;;;2.20;;
54705;SDS011;40603;48.774;8.916;2023-02-01T15:33:24;9.07;;;1.80;;
54705;SDS011;40603;48.774;8.916;2023-02-01T15:35:51;7.80;;;1.60;;
54705;SDS011;40603;48.774;8.916;2023-02-01T15:38:33;6.15;;;1.70;;
54705;SDS011;40603;48.774;8.916;2023-02-01T15:41:03;4.53;;;1.50;;
54705;SDS011;40603;48.774;8.916;2023-02-01T15:43:44;14.35;;;2.53;;
54705;SDS011;40603;48.774;8.916;2023-02-01T15:46:14;16.40;;;2.80;;
54705;SDS011;40603;48.774;8.916;2023-02-01T15:48:43;9.32;;;2.90;;
54705;SDS011;40603;48.774;8.916;2023-02-01T15:51:20;17.10;;;2.25;;
54705;SDS011;40603;48.774;8.916;2023-02-01T15:53:48;11.65;;;2.10;;
54705;SDS011;40603;48.774;8.916;2023-02-01T15:56:16;8.20;;;1.60;;
54705;SDS011;40603;48.774;8.916;2023-02-01T15:58:47;6.53;;;2.05;;
54705;SDS011;40603;48.774;8.916;2023-02-01T16:01:15;9.68;;;1.75;;
54705;SDS011;40603;48.774;8.916;2023-02-01T16:03:43;8.90;;;1.90;;
54705;SDS011;40603;48.774;8.916;2023-02-01T16:08:54;9.82;;;2.45;;
54705;SDS011;40603;48.774;8.916;2023-02-01T16:11:28;8.23;;;1.65;;
54705;SDS011;40603;48.774;8.916;2023-02-01T16:13:58;8.32;;;2.00;;
54705;SDS011;40603;48.774;8.916;2023-02-01T16:16:24;7.05;;;1.88;;
54705;SDS011;40603;48.774;8.916;2023-02-01T16:18:50;9.50;;;2.28;;
54705;SDS011;40603;48.774;8.916;2023-02-01T16:21:15;7.88;;;2.03;;
54705;SDS011;40603;48.774;8.916;2023-02-01T16:23:40;9.80;;;2.05;;
54705;SDS011;40603;48.774;8.916;2023-02-01T16:26:06;6.63;;;2.05;;
54705;SDS011;40603;48.774;8.916;2023-02-01T16:28:31;7.57;;;1.92;;
54705;SDS011;40603;48.774;8.916;2023-02-01T16:30:57;8.68;;;1.95;;
54705;SDS011;40603;48.774;8.916;2023-02-01T16:33:23;10.90;;;2.67;;
54705;SDS011;40603;48.774;8.916;2023-02-01T16:35:49;8.75;;;1.63;;
54705;SDS011;40603;48.774;8.916;2023-02-01T16:38:16;8.45;;;2.03;;
54705;SDS011;40603;48.774;8.916;2023-02-01T16:40:43;7.15;;;1.88;;
54705;SDS011;40603;48.774;8.916;2023-02-01T16:43:13;10.88;;;2.05;;
54705;SDS011;40603;48.774;8.916;2023-02-01T16:45:43;12.23;;;2.25;;
54705;SDS011;40603;48.774;8.916;2023-02-01T16:48:34;8.88;;;2.35;;
54705;SDS011;40603;48.774;8.916;2023-02-01T16:51:00;16.10;;;2.55;;
54705;SDS011;40603;48.774;8.916;2023-02-01T16:53:27;8.95;;;2.13;;
54705;SDS011;40603;48.774;8.916;2023-02-01T16:55:54;8.82;;;2.20;;
54705;SDS011;40603;48.774;8.916;2023-02-01T16:58:20;13.48;;;1.90;;